Radiance Of The Seas — C6SE7 — position and weather

sailwx.info

Track history (hours):
 
Tides and Currents Weather Stations Pressure Air Temp Water Temp Dewpoint Dewpoint Depression Visibility Wind Speed Wind Dir Waves Ship Positions

Radiance Of The Seas

Operator: Royal Caribbean Cruises Ltd

Last reported at 2016-Feb-07 14:33 UTC. Time now 2016-Feb-08 05:42 UTC.
Position S 33°14' E 152°21'.

Type: Passenger vessel. MMSI: 311319000.

Date/timePositionNaut miles runAvg speedWind from/ knotsBaromVisibWave heightAir tempDewpointWater temp
2016-Feb-07 14:33S 33°14' E 152°21'2322.3
2016-Feb-07 13:31S 32°60' E 152°43'  
2016-Jan-31 19:05S 31°25' E 154°43'2919.1
2016-Jan-31 17:33S 31°44' E 154°17'1918.9
2016-Jan-31 16:33S 31°57' E 154°00'2018.9
2016-Jan-31 15:30S 32°10' E 153°43'1818.8
2016-Jan-31 14:33S 32°21' E 153°27'1918.6
2016-Jan-31 13:33S 32°34' E 153°10'1716.9
2016-Jan-31 12:34S 32°45' E 152°55'1616.0
2016-Jan-31 11:33S 32°56' E 152°41'2019.3
2016-Jan-31 10:33S 33°08' E 152°24'71 4.4
2016-Jan-30 18:33S 33°50' E 151°16'1212.2
2016-Jan-30 17:33S 33°46' E 151°30'1818.0
2016-Jan-30 16:33S 33°36' E 151°47'1818.3
2016-Jan-30 15:33S 33°25' E 152°05'1918.6
2016-Jan-30 14:33S 33°14' E 152°22'1918.5
2016-Jan-30 13:33S 33°03' E 152°41'1919.2
2016-Jan-30 12:33S 32°51' E 152°58'2019.0
2016-Jan-30 11:31S 32°39' E 153°17'  
Track history (hours):
 
Tides and Currents Weather Stations Pressure Air Temp Water Temp Dewpoint Dewpoint Depression Visibility Wind Speed Wind Dir Waves Ship Positions

Radiance Of The Seas

Operator: Royal Caribbean Cruises Ltd

Last reported at 2016-Feb-07 14:33 UTC. Time now 2016-Feb-08 05:42 UTC.
Position S 33°14' E 152°21'.

Type: Passenger vessel. MMSI: 311319000.

Date/timePositionNaut miles runAvg speedWind from/ knotsBaromVisibWave heightAir tempDewpointWater temp
2016-Feb-07 14:33S 33°14' E 152°21'2322.3
2016-Feb-07 13:31S 32°60' E 152°43'  
2016-Jan-31 19:05S 31°25' E 154°43'2919.1
2016-Jan-31 17:33S 31°44' E 154°17'1918.9
2016-Jan-31 16:33S 31°57' E 154°00'2018.9
2016-Jan-31 15:30S 32°10' E 153°43'1818.8
2016-Jan-31 14:33S 32°21' E 153°27'1918.6
2016-Jan-31 13:33S 32°34' E 153°10'1716.9
2016-Jan-31 12:34S 32°45' E 152°55'1616.0
2016-Jan-31 11:33S 32°56' E 152°41'2019.3
2016-Jan-31 10:33S 33°08' E 152°24'71 4.4
2016-Jan-30 18:33S 33°50' E 151°16'1212.2
2016-Jan-30 17:33S 33°46' E 151°30'1818.0
2016-Jan-30 16:33S 33°36' E 151°47'1818.3
2016-Jan-30 15:33S 33°25' E 152°05'1918.6
2016-Jan-30 14:33S 33°14' E 152°22'1918.5
2016-Jan-30 13:33S 33°03' E 152°41'1919.2
2016-Jan-30 12:33S 32°51' E 152°58'2019.0
2016-Jan-30 11:31S 32°39' E 153°17'  

Dump ship's entire track history